createdAt,value
2022-10-15T00:05:32.826Z,21.04
2022-10-15T00:08:38.360Z,21.00
2022-10-15T00:14:58.172Z,20.87
2022-10-15T00:18:04.112Z,20.88
2022-10-15T00:24:05.321Z,20.96
2022-10-15T00:30:16.366Z,20.88
2022-10-15T00:33:03.913Z,20.89
2022-10-15T00:36:12.360Z,20.81
2022-10-15T00:39:30.838Z,20.82
2022-10-15T00:42:10.901Z,20.83
2022-10-15T00:48:23.132Z,20.78
2022-10-15T00:54:04.910Z,20.76
2022-10-15T00:56:41.910Z,20.75
2022-10-15T00:59:19.486Z,20.77
2022-10-15T01:01:52.798Z,20.71
2022-10-15T01:04:27.983Z,20.68
2022-10-15T01:07:10.500Z,20.69
2022-10-15T01:09:47.518Z,20.66
2022-10-15T01:12:58.280Z,20.63
2022-10-15T01:15:54.267Z,20.58
2022-10-15T01:18:44.424Z,20.53
2022-10-15T01:21:57.119Z,20.51
2022-10-15T01:24:54.822Z,20.41
2022-10-15T01:27:50.009Z,20.34
2022-10-15T01:30:42.489Z,20.37
2022-10-15T01:33:32.243Z,20.37
2022-10-15T01:36:37.734Z,20.35
2022-10-15T01:39:32.359Z,20.34
2022-10-15T01:42:06.917Z,20.28
2022-10-15T01:44:40.137Z,20.15
2022-10-15T01:47:26.222Z,20.22
2022-10-15T01:49:56.250Z,20.15
2022-10-15T01:55:00.105Z,20.17
2022-10-15T01:57:31.111Z,20.14
2022-10-15T01:59:59.417Z,20.14
2022-10-15T02:02:27.281Z,20.14
2022-10-15T02:04:55.696Z,20.08
2022-10-15T02:07:43.122Z,20.05
2022-10-15T02:11:03.480Z,20.09
2022-10-15T02:13:52.273Z,19.96
2022-10-15T02:16:50.387Z,20.00
2022-10-15T02:19:54.390Z,20.04
2022-10-15T02:22:36.022Z,20.08
2022-10-15T02:25:11.453Z,20.07
2022-10-15T02:27:41.143Z,20.05
2022-10-15T02:30:19.997Z,20.06
2022-10-15T02:33:02.134Z,19.99
2022-10-15T02:35:57.288Z,20.00
2022-10-15T02:38:36.026Z,19.81
2022-10-15T02:41:18.165Z,19.83
2022-10-15T02:43:54.916Z,19.69
2022-10-15T02:47:01.654Z,19.62
2022-10-15T02:49:38.560Z,19.63
2022-10-15T02:52:12.869Z,19.64
2022-10-15T02:54:49.282Z,19.64
2022-10-15T02:57:27.247Z,19.54
2022-10-15T03:00:04.569Z,19.53
2022-10-15T03:02:42.155Z,19.59
2022-10-15T03:05:18.510Z,19.62
2022-10-15T03:07:46.807Z,19.60
2022-10-15T03:10:17.317Z,19.57
2022-10-15T03:12:45.199Z,19.52
2022-10-15T03:15:14.586Z,19.60
2022-10-15T03:17:44.499Z,19.59
2022-10-15T03:20:12.750Z,19.56
2022-10-15T03:22:40.547Z,19.63
2022-10-15T03:25:08.400Z,19.73
2022-10-15T03:27:37.231Z,19.72
2022-10-15T03:30:14.308Z,19.59
2022-10-15T03:35:11.242Z,19.38
2022-10-15T03:37:38.882Z,19.46
2022-10-15T03:40:13.442Z,19.29
2022-10-15T03:42:43.975Z,19.41
2022-10-15T03:45:12.695Z,19.30
2022-10-15T03:47:40.204Z,19.18
2022-10-15T03:50:08.691Z,19.13
2022-10-15T03:52:38.507Z,19.06
2022-10-15T03:55:07.159Z,18.92
2022-10-15T03:57:35.211Z,18.92
2022-10-15T04:00:08.985Z,18.92
2022-10-15T04:02:42.135Z,18.98
2022-10-15T04:05:21.176Z,18.91
2022-10-15T04:07:53.777Z,18.92
2022-10-15T04:10:23.425Z,18.94
2022-10-15T04:12:51.715Z,18.96
2022-10-15T04:15:19.755Z,18.99
2022-10-15T04:17:56.184Z,19.07
2022-10-15T04:20:26.261Z,19.10
2022-10-15T04:22:53.818Z,19.08
2022-10-15T04:25:23.174Z,19.14
2022-10-15T04:27:50.756Z,19.14
2022-10-15T04:30:22.810Z,19.18
2022-10-15T04:32:55.908Z,19.15
2022-10-15T04:35:23.865Z,19.18
2022-10-15T04:38:02.177Z,19.23
2022-10-15T04:40:49.615Z,19.19
2022-10-15T04:43:18.246Z,19.14
2022-10-15T04:45:46.287Z,19.17
2022-10-15T04:48:19.627Z,19.09
2022-10-15T04:50:47.599Z,19.12
2022-10-15T04:53:19.375Z,18.99
2022-10-15T04:55:51.170Z,18.96
2022-10-15T04:58:18.646Z,19.04
2022-10-15T05:00:46.410Z,19.02
2022-10-15T05:03:37.557Z,19.09
2022-10-15T05:06:20.448Z,19.02
2022-10-15T05:08:49.791Z,19.12
2022-10-15T05:11:24.959Z,19.10
2022-10-15T05:13:56.456Z,19.02
2022-10-15T05:16:27.967Z,18.86
2022-10-15T05:18:59.440Z,18.87
2022-10-15T05:21:31.664Z,18.83
2022-10-15T05:24:05.705Z,18.83
2022-10-15T05:27:02.761Z,18.83
2022-10-15T05:29:33.843Z,18.77
2022-10-15T05:32:01.416Z,18.86
2022-10-15T05:34:31.013Z,18.86
2022-10-15T05:37:09.043Z,18.90
2022-10-15T05:39:41.848Z,18.91
2022-10-15T05:42:11.599Z,18.83
2022-10-15T05:44:42.854Z,18.79
2022-10-15T05:47:12.615Z,18.71
2022-10-15T05:49:41.695Z,18.72
2022-10-15T05:52:17.760Z,18.69
2022-10-15T05:55:07.416Z,18.68
2022-10-15T05:57:35.041Z,18.69
2022-10-15T06:00:07.148Z,18.70
2022-10-15T06:02:41.381Z,18.69
2022-10-15T06:05:09.378Z,18.76
2022-10-15T06:07:37.224Z,18.76
2022-10-15T06:10:06.244Z,18.75
2022-10-15T06:12:39.578Z,18.79
2022-10-15T06:15:07.775Z,18.82
2022-10-15T06:17:35.233Z,18.79
2022-10-15T06:20:02.630Z,18.83
2022-10-15T06:22:33.369Z,18.80
2022-10-15T06:25:03.214Z,18.78
2022-10-15T06:27:31.233Z,18.81
2022-10-15T06:29:58.688Z,18.82
2022-10-15T06:32:26.219Z,18.82
2022-10-15T06:34:53.911Z,18.74
2022-10-15T06:37:21.567Z,18.87
2022-10-15T06:39:49.185Z,18.84
2022-10-15T06:42:16.454Z,18.89
2022-10-15T06:44:48.372Z,19.11
2022-10-15T06:47:17.814Z,19.17
2022-10-15T06:49:48.270Z,19.47
2022-10-15T06:52:16.168Z,19.80
2022-10-15T06:54:52.625Z,19.80
2022-10-15T06:57:23.099Z,19.80
2022-10-15T06:59:51.727Z,19.88
2022-10-15T07:02:19.775Z,19.99
2022-10-15T07:04:48.266Z,20.18
2022-10-15T07:07:20.292Z,20.31
2022-10-15T07:09:49.509Z,20.36
2022-10-15T07:12:31.395Z,20.52
2022-10-15T07:14:59.877Z,20.52
2022-10-15T07:17:29.096Z,20.45
2022-10-15T07:19:58.870Z,20.58
2022-10-15T07:22:26.705Z,20.58
2022-10-15T07:24:54.486Z,20.66
2022-10-15T07:27:23.841Z,20.52
2022-10-15T07:30:01.065Z,20.66
2022-10-15T07:32:33.957Z,20.73
2022-10-15T07:35:11.665Z,20.73
2022-10-15T07:37:39.643Z,20.94
2022-10-15T07:40:13.143Z,20.82
2022-10-15T07:42:44.264Z,21.06
2022-10-15T07:45:19.260Z,20.96
2022-10-15T07:47:49.477Z,21.18
2022-10-15T07:50:17.701Z,21.28
2022-10-15T07:52:46.715Z,21.35
2022-10-15T07:55:14.275Z,21.38
2022-10-15T07:57:43.515Z,21.39
2022-10-15T08:00:11.549Z,21.54
2022-10-15T08:02:43.597Z,21.63
2022-10-15T08:05:11.032Z,21.74
2022-10-15T08:07:46.384Z,21.78
2022-10-15T08:10:18.931Z,21.73
2022-10-15T08:12:48.490Z,21.89
2022-10-15T08:15:16.027Z,21.87
2022-10-15T08:17:50.364Z,21.98
2022-10-15T08:20:19.235Z,22.04
2022-10-15T08:25:36.152Z,22.24
2022-10-15T08:28:03.666Z,22.28
2022-10-15T08:30:31.176Z,22.40
2022-10-15T08:33:24.467Z,22.44
2022-10-15T08:35:54.494Z,22.48
2022-10-15T08:38:22.012Z,22.63
2022-10-15T08:40:52.448Z,22.69
2022-10-15T08:43:45.427Z,22.81
2022-10-15T08:46:30.674Z,22.85
2022-10-15T08:49:01.102Z,22.81
2022-10-15T08:51:40.509Z,22.95
2022-10-15T08:54:14.528Z,23.11
2022-10-15T08:56:47.656Z,23.20
2022-10-15T08:59:32.001Z,23.23
2022-10-15T09:02:05.189Z,23.20
2022-10-15T09:04:55.897Z,23.28
2022-10-15T09:08:06.185Z,23.25
2022-10-15T09:10:40.731Z,23.33
2022-10-15T09:13:25.077Z,23.45
2022-10-15T09:16:31.484Z,23.56
2022-10-15T09:19:03.363Z,23.76
2022-10-15T09:21:59.857Z,23.85
2022-10-15T09:28:39.536Z,24.03
2022-10-15T09:31:10.393Z,24.05
2022-10-15T09:33:45.771Z,24.15
2022-10-15T09:36:28.348Z,24.30
2022-10-15T09:39:15.673Z,24.41
2022-10-15T09:42:04.861Z,24.45
2022-10-15T09:44:46.140Z,24.55
2022-10-15T09:47:27.683Z,24.64
2022-10-15T09:50:00.820Z,24.72
2022-10-15T09:53:13.344Z,24.81
2022-10-15T09:55:54.411Z,24.83
2022-10-15T09:58:39.705Z,24.93
2022-10-15T10:01:17.094Z,25.02
2022-10-15T10:03:44.657Z,25.05
2022-10-15T10:06:15.013Z,25.16
2022-10-15T10:08:58.316Z,25.28
2022-10-15T10:11:42.817Z,25.34
2022-10-15T10:14:31.436Z,25.44
2022-10-15T10:17:21.730Z,25.42
2022-10-15T10:20:10.710Z,25.47
2022-10-15T10:23:24.726Z,25.53
2022-10-15T10:25:52.494Z,25.52
2022-10-15T10:28:31.879Z,25.57
2022-10-15T10:31:04.326Z,25.60
2022-10-15T10:33:42.852Z,25.61
2022-10-15T10:36:25.393Z,25.61
2022-10-15T10:39:04.891Z,25.69
2022-10-15T10:42:07.248Z,25.58
2022-10-15T10:44:41.806Z,25.60
2022-10-15T10:47:12.429Z,25.56
2022-10-15T10:49:46.992Z,25.64
2022-10-15T10:52:41.544Z,25.64
2022-10-15T10:55:27.217Z,25.69
2022-10-15T10:58:00.505Z,25.75
2022-10-15T11:00:41.503Z,25.79
2022-10-15T11:03:18.350Z,25.81
2022-10-15T11:05:55.486Z,25.87
2022-10-15T11:08:25.866Z,25.91
2022-10-15T11:11:04.756Z,25.90
2022-10-15T11:14:00.290Z,25.86
2022-10-15T11:16:48.974Z,25.92
2022-10-15T11:19:59.646Z,25.79
2022-10-15T11:22:30.147Z,25.90
2022-10-15T11:25:08.146Z,25.91
2022-10-15T11:27:53.545Z,25.99
2022-10-15T11:30:39.840Z,26.05
2022-10-15T11:33:32.708Z,26.05
2022-10-15T11:36:17.799Z,26.03
2022-10-15T11:38:54.355Z,26.04
2022-10-15T11:41:44.271Z,26.07
2022-10-15T11:44:38.597Z,26.08
2022-10-15T11:47:15.783Z,26.13
2022-10-15T11:50:09.381Z,26.12
2022-10-15T11:53:31.919Z,26.22
2022-10-15T11:56:13.735Z,26.18
2022-10-15T11:58:46.945Z,26.24
2022-10-15T12:01:20.375Z,26.16
2022-10-15T12:04:07.437Z,26.21
2022-10-15T12:06:40.702Z,26.21
2022-10-15T12:09:14.489Z,26.26
2022-10-15T12:11:51.028Z,26.31
2022-10-15T12:14:45.034Z,26.37
2022-10-15T12:17:22.269Z,26.39
2022-10-15T12:20:01.073Z,26.41
2022-10-15T12:22:39.705Z,26.48
2022-10-15T12:25:36.726Z,26.48
2022-10-15T12:28:25.360Z,26.39
2022-10-15T12:31:01.945Z,26.37
2022-10-15T12:33:29.529Z,26.28
2022-10-15T12:36:00.997Z,26.26
2022-10-15T12:38:32.432Z,26.23
2022-10-15T12:41:14.814Z,26.22
2022-10-15T12:43:45.761Z,26.25
2022-10-15T12:46:14.455Z,26.17
2022-10-15T12:48:47.454Z,26.15
2022-10-15T12:51:35.793Z,26.23
2022-10-15T12:54:03.756Z,26.25
2022-10-15T12:56:40.970Z,26.17
2022-10-15T12:59:44.021Z,26.26
2022-10-15T13:05:32.196Z,26.28
2022-10-15T13:08:14.263Z,26.28
2022-10-15T13:10:50.361Z,26.21
2022-10-15T13:13:23.153Z,26.23
2022-10-15T13:16:08.547Z,26.26
2022-10-15T13:18:36.745Z,26.14
2022-10-15T13:21:05.363Z,26.09
2022-10-15T13:23:46.251Z,26.05
2022-10-15T13:26:16.766Z,25.98
2022-10-15T13:28:48.982Z,25.93
2022-10-15T13:31:46.910Z,25.94
2022-10-15T13:34:34.496Z,25.93
2022-10-15T13:37:03.507Z,25.87
2022-10-15T13:42:20.074Z,25.92
2022-10-15T13:45:08.166Z,25.86
2022-10-15T13:47:47.731Z,25.84
2022-10-15T13:50:22.034Z,25.89
2022-10-15T13:53:34.560Z,25.77
2022-10-15T13:56:06.341Z,25.71
2022-10-15T13:58:35.999Z,25.70
2022-10-15T14:01:16.227Z,25.71
2022-10-15T14:04:16.175Z,25.73
2022-10-15T14:07:03.925Z,25.74
2022-10-15T14:09:35.241Z,25.74
2022-10-15T14:12:06.980Z,25.76
2022-10-15T14:14:49.867Z,25.68
2022-10-15T14:17:17.813Z,25.71
2022-10-15T14:20:26.831Z,25.71
2022-10-15T14:22:55.511Z,25.74
2022-10-15T14:25:25.486Z,25.62
2022-10-15T14:27:53.516Z,25.69
2022-10-15T14:30:40.027Z,25.63
2022-10-15T14:33:35.277Z,25.65
2022-10-15T14:36:10.517Z,25.62
2022-10-15T14:38:47.518Z,25.58
2022-10-15T14:41:32.438Z,25.62
2022-10-15T14:44:12.028Z,25.61
2022-10-15T14:46:49.400Z,25.58
2022-10-15T14:49:28.297Z,25.63
2022-10-15T14:52:00.363Z,25.63
2022-10-15T14:54:32.027Z,25.61
2022-10-15T14:57:00.114Z,25.45
2022-10-15T14:59:37.171Z,25.46
2022-10-15T15:02:08.027Z,25.39
2022-10-15T15:04:52.747Z,25.42
2022-10-15T15:07:22.488Z,25.42
2022-10-15T15:09:51.989Z,25.52
2022-10-15T15:12:25.646Z,25.42
2022-10-15T15:14:55.471Z,25.40
2022-10-15T15:17:29.085Z,25.44
2022-10-15T15:19:58.183Z,25.51
2022-10-15T15:22:31.813Z,25.54
2022-10-15T15:25:14.652Z,25.56
2022-10-15T15:27:42.599Z,25.60
2022-10-15T15:30:21.691Z,25.63
2022-10-15T15:32:50.223Z,25.62
2022-10-15T15:35:35.615Z,25.63
2022-10-15T15:38:15.406Z,25.58
2022-10-15T15:40:43.840Z,25.61
2022-10-15T15:43:14.596Z,25.56
2022-10-15T15:45:43.219Z,25.48
2022-10-15T15:48:19.806Z,25.37
2022-10-15T15:51:09.637Z,25.39
2022-10-15T15:53:42.586Z,25.34
2022-10-15T15:56:23.736Z,25.32
2022-10-15T15:59:00.770Z,25.31
2022-10-15T16:01:31.637Z,25.29
2022-10-15T16:04:15.599Z,25.35
2022-10-15T16:06:52.983Z,25.33
2022-10-15T16:09:40.713Z,25.28
2022-10-15T16:12:15.785Z,25.27
2022-10-15T16:14:55.881Z,25.17
2022-10-15T16:17:25.728Z,25.09
2022-10-15T16:19:54.401Z,25.08
2022-10-15T16:22:22.869Z,25.11
2022-10-15T16:24:50.998Z,25.08
2022-10-15T16:27:18.938Z,24.98
2022-10-15T16:29:46.400Z,24.99
2022-10-15T16:32:14.473Z,24.88
2022-10-15T16:34:42.510Z,24.81
2022-10-15T16:37:10.264Z,24.80
2022-10-15T16:39:38.351Z,24.77
2022-10-15T16:42:06.256Z,24.72
2022-10-15T16:44:34.004Z,24.75
2022-10-15T16:47:02.408Z,24.77
2022-10-15T16:49:31.659Z,24.76
2022-10-15T16:52:02.667Z,24.74
2022-10-15T16:54:30.597Z,24.76
2022-10-15T16:56:58.394Z,24.75
2022-10-15T16:59:33.302Z,24.71
2022-10-15T17:02:01.949Z,24.68
2022-10-15T17:04:29.469Z,24.65
2022-10-15T17:06:57.238Z,24.66
2022-10-15T17:09:25.100Z,24.65
2022-10-15T17:11:53.166Z,24.63
2022-10-15T17:14:21.440Z,24.65
2022-10-15T17:16:51.562Z,24.64
2022-10-15T17:19:24.334Z,24.64
2022-10-15T17:21:53.118Z,24.65
2022-10-15T17:24:29.716Z,24.65
2022-10-15T17:27:01.450Z,24.62
2022-10-15T17:29:32.466Z,24.60
2022-10-15T17:32:06.515Z,24.59
2022-10-15T17:34:44.296Z,24.54
2022-10-15T17:37:11.983Z,24.51
2022-10-15T17:39:41.173Z,24.52
2022-10-15T17:42:08.593Z,24.52
2022-10-15T17:44:36.159Z,24.50
2022-10-15T17:47:04.072Z,24.50
2022-10-15T17:49:31.970Z,24.51
2022-10-15T17:51:59.479Z,24.50
2022-10-15T17:54:27.079Z,24.48
2022-10-15T17:56:54.880Z,24.48
2022-10-15T17:59:27.412Z,24.47
2022-10-15T18:01:59.324Z,24.46
2022-10-15T18:04:29.243Z,24.44
2022-10-15T18:06:57.288Z,24.44
2022-10-15T18:09:28.632Z,24.45
2022-10-15T18:12:00.842Z,24.42
2022-10-15T18:14:55.496Z,24.42
2022-10-15T18:17:25.418Z,24.41
2022-10-15T18:19:53.416Z,24.41
2022-10-15T18:22:21.403Z,24.41
2022-10-15T18:24:49.316Z,24.39
2022-10-15T18:27:26.787Z,24.41
2022-10-15T18:29:54.747Z,24.42
2022-10-15T18:32:22.209Z,24.40
2022-10-15T18:34:49.625Z,24.37
2022-10-15T18:37:17.149Z,24.39
2022-10-15T18:39:44.794Z,24.41
2022-10-15T18:42:17.508Z,24.40
2022-10-15T18:44:45.083Z,24.39
2022-10-15T18:47:12.877Z,24.40
2022-10-15T18:49:43.647Z,24.39
2022-10-15T18:52:21.404Z,24.38
2022-10-15T18:54:59.030Z,24.35
2022-10-15T18:57:27.060Z,24.30
2022-10-15T18:59:54.689Z,24.30
2022-10-15T19:02:26.466Z,24.29
2022-10-15T19:05:04.842Z,24.28
2022-10-15T19:07:32.867Z,24.27
2022-10-15T19:10:01.278Z,24.26
2022-10-15T19:12:29.369Z,24.25
2022-10-15T19:14:57.123Z,24.24
2022-10-15T19:17:24.833Z,24.24
2022-10-15T19:19:52.801Z,24.20
2022-10-15T19:22:20.840Z,24.20
2022-10-15T19:24:48.709Z,24.20
2022-10-15T19:27:16.671Z,24.17
2022-10-15T19:29:45.178Z,24.14
2022-10-15T19:32:13.919Z,24.12
2022-10-15T19:34:43.653Z,24.12
2022-10-15T19:37:12.436Z,24.10
2022-10-15T19:39:48.807Z,24.09
2022-10-15T19:42:17.800Z,24.09
2022-10-15T19:44:45.589Z,24.08
2022-10-15T19:47:21.106Z,24.09
2022-10-15T19:50:33.407Z,24.07
2022-10-15T19:53:14.734Z,24.05
2022-10-15T19:56:08.677Z,24.03
2022-10-15T19:58:38.052Z,24.03
2022-10-15T20:01:15.894Z,24.02
2022-10-15T20:03:50.280Z,24.03
2022-10-15T20:06:25.101Z,24.00
2022-10-15T20:08:55.867Z,23.99
2022-10-15T20:11:33.267Z,23.98
2022-10-15T20:14:03.251Z,23.97
2022-10-15T20:16:33.251Z,23.95
2022-10-15T20:19:03.409Z,23.95
2022-10-15T20:21:32.026Z,23.96
2022-10-15T20:23:59.508Z,23.93
2022-10-15T20:26:26.919Z,23.91
2022-10-15T20:28:54.532Z,23.85
2022-10-15T20:31:25.494Z,23.81
2022-10-15T20:34:01.269Z,23.85
2022-10-15T20:36:29.790Z,23.83
2022-10-15T20:39:05.350Z,23.82
2022-10-15T20:41:32.783Z,23.81
2022-10-15T20:44:00.518Z,23.81
2022-10-15T20:46:36.122Z,23.78
2022-10-15T20:51:42.468Z,23.77
2022-10-15T20:54:12.486Z,23.78
2022-10-15T20:56:41.178Z,23.79
2022-10-15T20:59:09.323Z,23.74
2022-10-15T21:01:37.684Z,23.71
2022-10-15T21:04:08.833Z,23.65
2022-10-15T21:06:36.494Z,23.68
2022-10-15T21:09:08.302Z,23.68
2022-10-15T21:12:42.371Z,23.64
2022-10-15T21:15:15.710Z,23.60
2022-10-15T21:17:44.428Z,23.60
2022-10-15T21:20:12.411Z,23.61
2022-10-15T21:22:42.987Z,23.59
2022-10-15T21:25:10.782Z,23.57
2022-10-15T21:27:38.814Z,23.53
2022-10-15T21:30:08.188Z,23.51
2022-10-15T21:32:44.541Z,23.50
2022-10-15T21:35:13.421Z,23.48
2022-10-15T21:37:40.801Z,23.47
2022-10-15T21:40:21.651Z,23.49
2022-10-15T21:42:55.557Z,23.44
2022-10-15T21:45:23.287Z,23.42
2022-10-15T21:48:24.313Z,23.44
2022-10-15T21:50:56.348Z,23.43
2022-10-15T21:53:24.193Z,23.42
2022-10-15T21:55:56.620Z,23.41
2022-10-15T21:58:28.167Z,23.40
2022-10-15T22:01:55.382Z,23.37
2022-10-15T22:04:35.752Z,23.35
2022-10-15T22:07:04.061Z,23.29
2022-10-15T22:09:31.920Z,23.29
2022-10-15T22:11:59.968Z,23.25
2022-10-15T22:14:31.757Z,23.24
2022-10-15T22:17:07.074Z,23.21
2022-10-15T22:19:52.918Z,23.16
2022-10-15T22:22:25.190Z,23.06
2022-10-15T22:25:08.094Z,23.02
2022-10-15T22:27:36.774Z,23.02
2022-10-15T22:30:08.211Z,23.02
2022-10-15T22:32:36.250Z,22.99
2022-10-15T22:35:04.902Z,22.99
2022-10-15T22:37:32.738Z,23.00
2022-10-15T22:40:14.178Z,23.00
2022-10-15T22:42:42.709Z,23.00
2022-10-15T22:45:30.319Z,22.98
2022-10-15T22:48:27.865Z,22.90
2022-10-15T22:51:41.539Z,22.92
2022-10-15T22:54:24.768Z,22.93
2022-10-15T23:00:50.710Z,22.85
2022-10-15T23:03:40.414Z,22.78
2022-10-15T23:06:32.628Z,22.77
2022-10-15T23:09:06.158Z,22.78
2022-10-15T23:11:50.515Z,22.78
2022-10-15T23:14:24.830Z,22.73
2022-10-15T23:17:03.144Z,22.70
2022-10-15T23:19:33.735Z,22.68
2022-10-15T23:22:06.198Z,22.67
2022-10-15T23:24:35.416Z,22.68
2022-10-15T23:27:05.348Z,22.69
2022-10-15T23:29:33.629Z,22.61
2022-10-15T23:32:01.072Z,22.61
2022-10-15T23:34:30.042Z,22.55
2022-10-15T23:36:59.967Z,22.56
2022-10-15T23:39:30.001Z,22.50
2022-10-15T23:42:01.895Z,22.47
2022-10-15T23:44:29.887Z,22.49
2022-10-15T23:46:57.492Z,22.47
2022-10-15T23:49:24.986Z,22.45
2022-10-15T23:51:57.833Z,22.46
2022-10-15T23:54:49.137Z,22.45
2022-10-15T23:57:22.385Z,22.42
